Time;durP1;ratioP1;P1;durP2;ratioP2;P2;SDS_P1;SDS_P2;PMS_P1;PMS_P2;Temp;Humidity;BMP_temperature;BMP_pressure;BME280_temperature;BME280_humidity;BME280_pressure;Samples;Min_cycle;Max_cycle;Signal;HPM_P1;HPM_P2
2021/07/19 00:01:19;;;;;;;12.10;10.82;;;;;;;19.12;74.81;92747.00;5072440;28;20024;-63
2021/07/19 00:03:45;;;;;;;12.05;11.00;;;;;;;19.01;75.04;92749.88;5072238;28;20017;-62
2021/07/19 00:06:11;;;;;;;12.38;11.30;;;;;;;18.89;74.83;92727.59;5072022;28;20017;-60
2021/07/19 00:08:36;;;;;;;12.55;10.88;;;;;;;19.09;74.41;92756.63;5072275;28;20031;-60
2021/07/19 00:11:02;;;;;;;11.32;10.18;;;;;;;19.00;74.83;92748.41;5072304;28;20028;-61
2021/07/19 00:13:28;;;;;;;15.18;10.88;;;;;;;18.99;73.93;92742.13;5071944;28;20493;-61
2021/07/19 00:15:53;;;;;;;12.25;10.20;;;;;;;19.00;74.10;92751.94;5072061;28;20035;-61
2021/07/19 00:18:19;;;;;;;11.85;10.52;;;;;;;18.98;73.96;92748.31;5072122;28;20463;-61
2021/07/19 00:20:45;;;;;;;12.48;11.18;;;;;;;18.75;75.57;92735.97;5072098;28;20051;-61
2021/07/19 00:23:10;;;;;;;11.43;10.20;;;;;;;18.96;74.49;92748.22;5072131;28;20085;-60
2021/07/19 00:25:36;;;;;;;11.85;10.80;;;;;;;18.91;74.07;92727.69;5072051;28;20481;-61
2021/07/19 00:28:03;;;;;;;11.85;10.85;;;;;;;19.04;73.15;92752.16;5071731;28;20028;-60
2021/07/19 00:30:28;;;;;;;11.02;10.10;;;;;;;19.08;73.70;92754.44;5071907;28;20020;-60
2021/07/19 00:32:55;;;;;;;11.98;10.77;;;;;;;18.82;73.68;92739.78;5071572;28;20024;-60
2021/07/19 00:35:21;;;;;;;12.18;10.88;;;;;;;18.78;73.46;92754.31;5071383;28;20497;-61
2021/07/19 00:37:46;;;;;;;10.73;9.82;;;;;;;18.89;73.41;92755.56;5071736;28;20031;-60
2021/07/19 00:40:24;;;;;;;13.48;10.50;;;;;;;18.75;74.08;92761.13;5071478;28;20182;-60
2021/07/19 00:42:49;;;;;;;11.57;9.90;;;;;;;18.83;73.82;92755.25;5083317;28;20504;-61
2021/07/19 00:45:26;;;;;;;11.27;10.27;;;;;;;18.84;73.39;92751.81;5084109;28;20032;-60
2021/07/19 00:47:54;;;;;;;10.07;9.15;;;;;;;18.89;72.69;92758.34;5079207;28;20021;-60
2021/07/19 00:50:20;;;;;;;11.77;10.27;;;;;;;18.75;73.03;92754.81;5081462;28;20024;-64
2021/07/19 00:52:46;;;;;;;12.90;10.32;;;;;;;18.74;73.09;92753.38;5072121;28;20032;-62
2021/07/19 00:55:12;;;;;;;43.47;12.50;;;;;;;18.63;73.02;92757.69;5074862;28;20012;-64
2021/07/19 00:57:39;;;;;;;12.95;9.80;;;;;;;18.61;72.95;92749.22;5083300;28;20023;-63
2021/07/19 01:00:07;;;;;;;13.35;9.57;;;;;;;18.56;73.18;92760.81;5077529;28;20099;-62
2021/07/19 01:02:34;;;;;;;11.27;10.10;;;;;;;18.63;73.00;92765.34;5076325;28;20024;-63
2021/07/19 01:05:02;;;;;;;12.63;9.43;;;;;;;18.59;72.92;92765.16;5079191;28;20020;-62
2021/07/19 01:07:27;;;;;;;12.43;10.00;;;;;;;18.37;73.55;92766.72;5081535;28;20077;-60
2021/07/19 01:09:53;;;;;;;12.27;10.43;;;;;;;18.36;73.22;92765.28;5078614;28;20025;-63
2021/07/19 01:12:19;;;;;;;11.60;10.55;;;;;;;18.25;74.55;92772.38;5079627;28;20016;-62
2021/07/19 01:14:44;;;;;;;11.20;10.15;;;;;;;18.42;74.37;92773.97;5079795;28;20406;-64
2021/07/19 01:17:10;;;;;;;12.98;11.50;;;;;;;17.93;75.31;92774.09;5077297;28;20021;-64
2021/07/19 01:19:37;;;;;;;12.30;11.13;;;;;;;18.15;75.15;92766.22;5080443;28;20027;-65
2021/07/19 01:22:11;;;;;;;11.10;10.05;;;;;;;18.28;74.52;92776.00;5073163;28;20024;-62
2021/07/19 01:24:55;;;;;;;11.25;10.00;;;;;;;18.33;74.46;92778.41;5070816;28;20109;-65
2021/07/19 01:27:57;;;;;;;12.20;10.90;;;;;;;18.03;75.23;92776.72;5070898;28;20067;-64
2021/07/19 01:30:24;;;;;;;10.40;9.45;;;;;;;18.24;74.35;92784.16;5072886;28;20080;-60
2021/07/19 01:32:50;;;;;;;11.07;10.10;;;;;;;18.25;73.74;92780.75;5077662;28;20397;-61
2021/07/19 01:35:16;;;;;;;11.27;10.13;;;;;;;18.28;73.39;92776.00;5078913;28;20021;-58
2021/07/19 01:37:45;;;;;;;12.25;10.88;;;;;;;18.22;73.49;92773.59;5077404;28;20683;-60
2021/07/19 01:40:11;;;;;;;11.90;10.13;;;;;;;18.27;72.91;92778.06;5079519;28;20024;-62
2021/07/19 01:42:36;;;;;;;12.35;10.55;;;;;;;18.08;73.56;92781.22;5078587;28;20413;-62
2021/07/19 01:45:04;;;;;;;10.93;9.93;;;;;;;18.02;74.08;92789.22;5078091;28;20079;-63
2021/07/19 01:47:30;;;;;;;11.35;10.30;;;;;;;18.17;73.23;92788.69;5077033;28;20093;-60
2021/07/19 01:49:55;;;;;;;11.32;10.25;;;;;;;18.19;72.78;92783.22;5077562;28;20020;-60
2021/07/19 01:52:21;;;;;;;12.85;10.85;;;;;;;18.18;72.87;92785.28;5072444;28;20020;-61
2021/07/19 01:54:47;;;;;;;11.95;10.77;;;;;;;18.16;72.92;92779.59;5068271;28;20024;-61
2021/07/19 01:57:14;;;;;;;11.25;10.07;;;;;;;18.19;73.11;92786.03;5077540;28;20040;-60
2021/07/19 01:59:40;;;;;;;11.82;10.68;;;;;;;18.17;72.81;92792.22;5078138;28;20020;-60
2021/07/19 02:02:06;;;;;;;13.75;10.15;;;;;;;18.18;72.72;92795.72;5075845;28;20032;-60
2021/07/19 02:04:32;;;;;;;10.77;9.55;;;;;;;18.18;72.21;92795.72;5071440;28;20020;-64
2021/07/19 02:06:58;;;;;;;10.65;9.55;;;;;;;17.91;73.06;92792.81;5070081;28;20051;-60
2021/07/19 02:09:24;;;;;;;11.73;10.52;;;;;;;17.70;74.39;92799.31;5071866;28;20504;-60
2021/07/19 02:11:50;;;;;;;11.43;10.43;;;;;;;17.44;74.75;92778.97;5089108;28;20020;-61
2021/07/19 02:14:17;;;;;;;11.70;10.63;;;;;;;17.43;74.94;92790.75;5090147;28;20417;-60
2021/07/19 02:16:48;;;;;;;11.88;10.15;;;;;;;17.68;74.18;92784.50;5090326;28;20054;-58
2021/07/19 02:19:13;;;;;;;10.90;9.82;;;;;;;17.85;73.52;92782.03;5090314;28;20236;-59
2021/07/19 02:21:39;;;;;;;11.35;10.35;;;;;;;17.79;73.19;92794.91;5088398;28;20049;-58
2021/07/19 02:24:05;;;;;;;12.57;11.38;;;;;;;17.35;75.69;92793.03;5088026;28;20421;-60
2021/07/19 02:26:30;;;;;;;12.43;11.18;;;;;;;17.44;74.93;92794.97;5088630;28;20031;-59
2021/07/19 02:28:57;;;;;;;14.38;11.50;;;;;;;17.59;74.57;92793.75;5072833;28;20029;-58
2021/07/19 02:31:23;;;;;;;11.63;10.30;;;;;;;17.69;73.86;92803.44;5071790;28;20036;-55
2021/07/19 02:33:50;;;;;;;12.05;10.55;;;;;;;17.73;74.72;92795.31;5070082;28;20155;-45
2021/07/19 02:36:16;;;;;;;10.75;9.75;;;;;;;17.76;73.37;92798.94;5070384;28;20374;-47
2021/07/19 02:38:43;;;;;;;14.45;10.38;;;;;;;17.52;73.44;92801.03;5069066;28;20057;-47
2021/07/19 02:41:09;;;;;;;15.25;10.48;;;;;;;17.40;73.81;92803.84;5068896;28;20482;-48
2021/07/19 02:43:35;;;;;;;16.27;9.77;;;;;;;17.42;73.35;92794.84;5101709;28;20026;-47
2021/07/19 02:46:01;;;;;;;12.35;11.15;;;;;;;17.25;73.61;92803.63;5090387;28;20036;-44
2021/07/19 02:48:29;;;;;;;11.18;10.27;;;;;;;17.28;73.41;92805.19;5105090;28;20028;-44
2021/07/19 02:50:58;;;;;;;11.00;10.07;;;;;;;17.21;73.66;92806.16;5105908;28;20040;-43
2021/07/19 02:53:25;;;;;;;12.20;10.80;;;;;;;17.12;73.56;92804.22;5109328;28;20523;-44
2021/07/19 02:55:51;;;;;;;12.20;10.80;;;;;;;17.00;73.56;92784.00;5097339;28;20115;-46
2021/07/19 02:58:18;;;;;;;12.57;10.30;;;;;;;17.26;73.43;92810.66;5086387;28;20089;-43
2021/07/19 03:00:44;;;;;;;12.63;11.35;;;;;;;17.35;72.68;92820.94;5087267;28;20184;-44
2021/07/19 03:03:19;;;;;;;11.27;10.38;;;;;;;17.44;72.17;92812.44;5088384;28;20542;-44
2021/07/19 03:05:49;;;;;;;10.57;9.23;;;;;;;17.43;72.09;92816.56;5086356;28;20028;-45
2021/07/19 03:08:15;;;;;;;11.05;9.90;;;;;;;17.42;71.81;92811.59;5087449;28;20059;-44
2021/07/19 03:10:49;;;;;;;11.15;10.15;;;;;;;17.13;72.29;92786.88;5086005;28;20051;-46
2021/07/19 03:13:22;;;;;;;10.57;9.68;;;;;;;17.31;72.45;92823.50;5086477;28;20024;-44
2021/07/19 03:15:48;;;;;;;11.55;10.55;;;;;;;17.31;71.99;92821.44;5087321;28;20478;-44
2021/07/19 03:18:13;;;;;;;11.38;10.27;;;;;;;17.37;72.31;92819.00;5086905;28;20047;-43
2021/07/19 03:20:40;;;;;;;12.30;11.02;;;;;;;17.22;73.01;92813.94;5087361;28;20031;-44
2021/07/19 03:23:10;;;;;;;14.98;10.70;;;;;;;17.21;72.80;92806.91;5088102;28;20503;-44
2021/07/19 03:25:36;;;;;;;12.18;10.98;;;;;;;17.17;73.22;92812.22;5089438;28;20020;-44
2021/07/19 03:28:02;;;;;;;11.73;10.52;;;;;;;17.23;72.77;92814.66;5089945;28;20028;-44
2021/07/19 03:30:28;;;;;;;12.25;10.50;;;;;;;17.26;72.78;92813.44;5088655;28;20118;-44
2021/07/19 03:32:53;;;;;;;11.13;9.88;;;;;;;17.26;73.77;92805.09;5090506;28;20123;-44
2021/07/19 03:35:22;;;;;;;11.95;10.85;;;;;;;17.27;72.90;92810.03;5093674;28;20034;-44
2021/07/19 03:37:48;;;;;;;12.00;10.57;;;;;;;17.35;73.04;92804.19;5093660;28;20088;-45
2021/07/19 03:40:17;;;;;;;14.90;10.63;;;;;;;17.40;72.97;92820.59;5093558;28;20044;-44
2021/07/19 03:42:43;;;;;;;11.75;9.73;;;;;;;17.42;72.86;92817.91;5080801;28;20414;-44
2021/07/19 03:45:13;;;;;;;11.23;10.18;;;;;;;17.20;73.69;92827.03;5073221;28;20048;-45
2021/07/19 03:47:40;;;;;;;12.70;11.50;;;;;;;17.25;73.60;92823.16;5073216;28;20028;-45
2021/07/19 03:50:06;;;;;;;12.35;10.90;;;;;;;17.15;74.05;92822.56;5072273;28;20024;-44
2021/07/19 03:52:33;;;;;;;11.80;10.60;;;;;;;17.29;73.86;92826.16;5073529;28;20478;-44
2021/07/19 03:54:59;;;;;;;11.50;10.52;;;;;;;17.17;74.10;92822.69;5072098;28;20029;-44
2021/07/19 03:57:25;;;;;;;12.63;11.35;;;;;;;17.03;74.88;92821.81;5073396;28;20059;-44
2021/07/19 03:59:50;;;;;;;11.95;10.52;;;;;;;16.93;75.22;92833.09;5073370;28;20020;-44
2021/07/19 04:02:17;;;;;;;12.23;11.02;;;;;;;16.97;75.13;92824.97;5073053;28;20551;-45
2021/07/19 04:04:45;;;;;;;12.63;11.35;;;;;;;17.03;74.88;92830.91;5072110;28;20471;-44
2021/07/19 04:07:13;;;;;;;15.43;11.23;;;;;;;17.29;74.42;92831.75;5072111;28;20020;-44
2021/07/19 04:09:39;;;;;;;14.10;12.02;;;;;;;17.31;74.80;92831.88;5073123;28;20055;-44
2021/07/19 04:12:08;;;;;;;12.95;11.73;;;;;;;17.25;74.61;92820.34;5072841;28;20505;-44
2021/07/19 04:14:33;;;;;;;11.45;10.35;;;;;;;17.49;74.65;92835.00;5071876;28;20032;-44
2021/07/19 04:16:59;;;;;;;11.65;10.02;;;;;;;17.57;74.48;92843.88;5072652;28;20031;-44
2021/07/19 04:19:25;;;;;;;12.30;11.10;;;;;;;17.58;73.59;92846.06;5072723;28;20023;-44
2021/07/19 04:21:52;;;;;;;11.60;10.50;;;;;;;17.62;73.66;92851.16;5072952;28;20021;-44
2021/07/19 04:24:17;;;;;;;15.07;10.75;;;;;;;17.66;73.54;92849.34;5072569;28;20503;-44
2021/07/19 04:26:43;;;;;;;11.68;10.40;;;;;;;17.66;73.59;92852.13;5072916;28;20024;-44
2021/07/19 04:29:08;;;;;;;11.48;10.48;;;;;;;17.71;73.93;92851.03;5071655;28;20035;-45
2021/07/19 04:31:33;;;;;;;13.80;10.32;;;;;;;17.72;73.80;92849.69;5071606;28;20097;-44
2021/07/19 04:33:59;;;;;;;12.18;10.93;;;;;;;17.79;73.60;92843.13;5071207;28;20028;-44
2021/07/19 04:36:27;;;;;;;11.57;10.48;;;;;;;17.87;73.79;92854.00;5089507;28;20024;-44
2021/07/19 04:38:52;;;;;;;11.60;10.40;;;;;;;17.98;73.90;92850.47;5092941;28;20024;-44
2021/07/19 04:41:19;;;;;;;11.98;10.52;;;;;;;18.01;74.42;92844.41;5092789;28;20545;-45
2021/07/19 04:43:46;;;;;;;15.27;10.60;;;;;;;18.15;74.70;92858.41;5075250;28;20059;-44
2021/07/19 04:46:12;;;;;;;13.48;10.75;;;;;;;18.20;73.94;92854.53;5072568;28;20025;-45
2021/07/19 04:48:38;;;;;;;15.27;11.05;;;;;;;18.17;73.77;92848.09;5072075;28;20040;-44
2021/07/19 04:51:03;;;;;;;16.75;10.68;;;;;;;18.26;73.61;92854.16;5072101;28;20044;-44
2021/07/19 04:53:29;;;;;;;15.48;12.02;;;;;;;18.37;74.00;92853.34;5072296;28;20106;-45
2021/07/19 04:55:58;;;;;;;13.30;11.45;;;;;;;18.49;74.10;92851.28;5071058;28;20517;-46
2021/07/19 04:58:25;;;;;;;13.95;11.95;;;;;;;18.46;73.69;92836.44;5070934;28;20042;-45
2021/07/19 05:00:57;;;;;;;13.35;12.05;;;;;;;18.61;74.05;92857.53;5071837;28;20029;-45
2021/07/19 05:03:23;;;;;;;16.98;12.75;;;;;;;18.71;74.46;92855.28;5070809;28;20031;-44
2021/07/19 05:05:49;;;;;;;17.77;12.43;;;;;;;18.52;74.60;92817.22;5070565;28;20048;-46
2021/07/19 05:08:19;;;;;;;17.38;12.68;;;;;;;18.70;74.68;92832.19;5071856;28;20063;-44
2021/07/19 05:10:44;;;;;;;12.82;11.70;;;;;;;18.78;74.65;92823.50;5071722;28;20036;-45
2021/07/19 05:13:11;;;;;;;14.32;12.57;;;;;;;19.02;74.87;92855.56;5072190;28;20031;-45
2021/07/19 05:15:39;;;;;;;34.38;13.60;;;;;;;19.06;75.22;92858.56;5071859;28;20094;-44
2021/07/19 05:18:04;;;;;;;13.55;12.25;;;;;;;19.14;75.26;92866.69;5070370;28;20197;-44
2021/07/19 05:20:30;;;;;;;15.73;12.43;;;;;;;19.18;75.05;92855.69;5070279;28;20040;-45
2021/07/19 05:22:55;;;;;;;15.70;14.07;;;;;;;19.12;76.16;92856.13;5070255;28;20028;-45
2021/07/19 05:25:31;;;;;;;17.40;13.35;;;;;;;19.22;76.10;92850.31;5071676;28;20021;-44
